Serenade Of The Seas — C6FV8 — position and weather

sailwx.info

Track history (hours):
 
Tides and Currents Weather Stations Pressure Air Temp Water Temp Dewpoint Dewpoint Depression Visibility Wind Speed Wind Dir Waves Ship Positions

Serenade Of The Seas

Operator: Royal Caribbean Cruises Ltd

Last reported at 2015-Sep-03 07:08 UTC. Time now 2015-Sep-03 17:12 UTC.
Position N 62°15' W 006°37'.

Length 294 m; draft 8.6 m.

Type: Ship. MMSI: 311492000.

Date/timePositionNaut miles runAvg speedWind from/ knotsBaromVisibWave heightAir tempDewpointWater temp
2015-Sep-03 07:08N 62°15' W 006°37'4 6.3
2015-Sep-03 06:33N 62°15' W 006°45'22 7.1
2015-Sep-03 03:25N 62°15' W 005°58'1314.4
2015-Sep-03 02:33N 62°05' W 005°41'1514.6
2015-Sep-03 01:33N 61°53' W 005°21'46910.9
2015-Sep-01 06:33N 58°03' E 008°15'1311.2
2015-Sep-01 05:25N 58°01' E 008°39'910.2
2015-Sep-01 04:30N 58°06' E 008°54'5210.5
2015-Aug-31 23:33N 58°44' E 010°02'1111.3
2015-Aug-31 22:33N 58°52' E 010°17'1111.2
2015-Aug-31 21:33N 58°60' E 010°32'10 9.7
2015-Aug-31 20:34N 59°09' E 010°38'1817.6
2015-Aug-31 19:34N 59°26' E 010°33'1514.9
2015-Aug-31 18:34N 59°41' E 010°37'1211.2
2015-Aug-31 17:28N 59°53' E 010°40'1 0.1
2015-Aug-31 07:23N 59°54' E 010°41'2312.6
2015-Aug-31 05:34N 59°31' E 010°35'1818.2
2015-Aug-31 04:34N 59°13' E 010°38'1615.9
2015-Aug-31 03:34N 58°57' E 010°32'1918.8
2015-Aug-31 02:34N 58°38' E 010°29'1818.2
2015-Aug-31 01:34N 58°20' E 010°33'1717.5
2015-Aug-31 00:34N 58°04' E 010°47'1919.0
2015-Aug-30 23:34N 57°48' E 011°06'2019.9
2015-Aug-30 22:34N 57°31' E 011°24'2019.7
2015-Aug-30 21:34N 57°12' E 011°37'2019.7
2015-Aug-30 20:34N 56°54' E 011°48'1919.2
2015-Aug-30 19:33N 56°35' E 011°59'1918.9
2015-Aug-30 18:32N 56°17' E 012°09'1919.0
2015-Aug-30 17:33N 56°05' E 012°36'1615.8
2015-Aug-30 16:34N 55°50' E 012°45'9 8.6
2015-Aug-30 15:33N 55°43' E 012°37'0 0.0
2015-Aug-30 14:33N 55°43' E 012°37'0 0.0
2015-Aug-30 13:33N 55°43' E 012°37'0 0.0
2015-Aug-30 12:33N 55°43' E 012°37'0 0.0
2015-Aug-30 11:33N 55°43' E 012°37'0 0.0
2015-Aug-30 10:33N 55°43' E 012°37'0 0.0
2015-Aug-30 09:33N 55°43' E 012°37'0 0.0
2015-Aug-30 08:33N 55°43' E 012°37'0 0.0
2015-Aug-30 07:33N 55°43' E 012°37'0 0.0
2015-Aug-30 06:33N 55°43' E 012°37'0 0.0
2015-Aug-30 05:33N 55°43' E 012°37'0 0.2
2015-Aug-30 04:34N 55°43' E 012°38'8 8.4
2015-Aug-30 03:33N 55°51' E 012°41'1414.2
2015-Aug-30 02:34N 56°05' E 012°35'1716.9
2015-Aug-30 01:34N 56°14' E 012°10'1514.6
2015-Aug-30 00:33N 56°28' E 011°59'1716.7
2015-Aug-29 23:33N 56°44' E 011°53'1818.3
2015-Aug-29 22:33N 57°01' E 011°41'1818.0
2015-Aug-29 21:33N 57°18' E 011°31'1817.9
2015-Aug-29 20:33N 57°33' E 011°13'1818.1
2015-Aug-29 19:33N 57°46' E 010°48'2118.9
2015-Aug-29 18:28N 57°50' E 010°11'1819.6
2015-Aug-29 17:33N 57°49' E 009°37'4219.0
2015-Aug-29 15:20N 57°57' E 008°19'86 4.3
2015-Aug-28 19:29N 58°09' E 005°38'  
2015-Aug-24 19:15N 59°17' E 004°30'1014.4
2015-Aug-24 18:33N 59°11' E 004°46'1313.0
2015-Aug-24 17:33N 59°06' E 005°08'1313.4
2015-Aug-24 16:33N 59°04' E 005°34'7 7.0
2015-Aug-24 15:32N 58°58' E 005°44'0 0.0
2015-Aug-24 14:32N 58°58' E 005°44'0 0.0
2015-Aug-24 13:32N 58°58' E 005°44'0 0.0
2015-Aug-24 12:32N 58°58' E 005°44'0 0.0
2015-Aug-24 11:32N 58°58' E 005°44'0 0.0
2015-Aug-24 10:29N 58°58' E 005°44'0 0.0
2015-Aug-24 09:32N 58°58' E 005°44'0 0.0
2015-Aug-24 08:32N 58°58' E 005°44'0 0.0
2015-Aug-24 07:32N 58°58' E 005°44'  
Track history (hours):
 
Tides and Currents Weather Stations Pressure Air Temp Water Temp Dewpoint Dewpoint Depression Visibility Wind Speed Wind Dir Waves Ship Positions

Serenade Of The Seas

Operator: Royal Caribbean Cruises Ltd

Last reported at 2015-Sep-03 07:08 UTC. Time now 2015-Sep-03 17:12 UTC.
Position N 62°15' W 006°37'.

Length 294 m; draft 8.6 m.

Type: Ship. MMSI: 311492000.

Date/timePositionNaut miles runAvg speedWind from/ knotsBaromVisibWave heightAir tempDewpointWater temp
2015-Sep-03 07:08N 62°15' W 006°37'4 6.3
2015-Sep-03 06:33N 62°15' W 006°45'22 7.1
2015-Sep-03 03:25N 62°15' W 005°58'1314.4
2015-Sep-03 02:33N 62°05' W 005°41'1514.6
2015-Sep-03 01:33N 61°53' W 005°21'46910.9
2015-Sep-01 06:33N 58°03' E 008°15'1311.2
2015-Sep-01 05:25N 58°01' E 008°39'910.2
2015-Sep-01 04:30N 58°06' E 008°54'5210.5
2015-Aug-31 23:33N 58°44' E 010°02'1111.3
2015-Aug-31 22:33N 58°52' E 010°17'1111.2
2015-Aug-31 21:33N 58°60' E 010°32'10 9.7
2015-Aug-31 20:34N 59°09' E 010°38'1817.6
2015-Aug-31 19:34N 59°26' E 010°33'1514.9
2015-Aug-31 18:34N 59°41' E 010°37'1211.2
2015-Aug-31 17:28N 59°53' E 010°40'1 0.1
2015-Aug-31 07:23N 59°54' E 010°41'2312.6
2015-Aug-31 05:34N 59°31' E 010°35'1818.2
2015-Aug-31 04:34N 59°13' E 010°38'1615.9
2015-Aug-31 03:34N 58°57' E 010°32'1918.8
2015-Aug-31 02:34N 58°38' E 010°29'1818.2
2015-Aug-31 01:34N 58°20' E 010°33'1717.5
2015-Aug-31 00:34N 58°04' E 010°47'1919.0
2015-Aug-30 23:34N 57°48' E 011°06'2019.9
2015-Aug-30 22:34N 57°31' E 011°24'2019.7
2015-Aug-30 21:34N 57°12' E 011°37'2019.7
2015-Aug-30 20:34N 56°54' E 011°48'1919.2
2015-Aug-30 19:33N 56°35' E 011°59'1918.9
2015-Aug-30 18:32N 56°17' E 012°09'1919.0
2015-Aug-30 17:33N 56°05' E 012°36'1615.8
2015-Aug-30 16:34N 55°50' E 012°45'9 8.6
2015-Aug-30 15:33N 55°43' E 012°37'0 0.0
2015-Aug-30 14:33N 55°43' E 012°37'0 0.0
2015-Aug-30 13:33N 55°43' E 012°37'0 0.0
2015-Aug-30 12:33N 55°43' E 012°37'0 0.0
2015-Aug-30 11:33N 55°43' E 012°37'0 0.0
2015-Aug-30 10:33N 55°43' E 012°37'0 0.0
2015-Aug-30 09:33N 55°43' E 012°37'0 0.0
2015-Aug-30 08:33N 55°43' E 012°37'0 0.0
2015-Aug-30 07:33N 55°43' E 012°37'0 0.0
2015-Aug-30 06:33N 55°43' E 012°37'0 0.0
2015-Aug-30 05:33N 55°43' E 012°37'0 0.2
2015-Aug-30 04:34N 55°43' E 012°38'8 8.4
2015-Aug-30 03:33N 55°51' E 012°41'1414.2
2015-Aug-30 02:34N 56°05' E 012°35'1716.9
2015-Aug-30 01:34N 56°14' E 012°10'1514.6
2015-Aug-30 00:33N 56°28' E 011°59'1716.7
2015-Aug-29 23:33N 56°44' E 011°53'1818.3
2015-Aug-29 22:33N 57°01' E 011°41'1818.0
2015-Aug-29 21:33N 57°18' E 011°31'1817.9
2015-Aug-29 20:33N 57°33' E 011°13'1818.1
2015-Aug-29 19:33N 57°46' E 010°48'2118.9
2015-Aug-29 18:28N 57°50' E 010°11'1819.6
2015-Aug-29 17:33N 57°49' E 009°37'4219.0
2015-Aug-29 15:20N 57°57' E 008°19'86 4.3
2015-Aug-28 19:29N 58°09' E 005°38'  
2015-Aug-24 19:15N 59°17' E 004°30'1014.4
2015-Aug-24 18:33N 59°11' E 004°46'1313.0
2015-Aug-24 17:33N 59°06' E 005°08'1313.4
2015-Aug-24 16:33N 59°04' E 005°34'7 7.0
2015-Aug-24 15:32N 58°58' E 005°44'0 0.0
2015-Aug-24 14:32N 58°58' E 005°44'0 0.0
2015-Aug-24 13:32N 58°58' E 005°44'0 0.0
2015-Aug-24 12:32N 58°58' E 005°44'0 0.0
2015-Aug-24 11:32N 58°58' E 005°44'0 0.0
2015-Aug-24 10:29N 58°58' E 005°44'0 0.0
2015-Aug-24 09:32N 58°58' E 005°44'0 0.0
2015-Aug-24 08:32N 58°58' E 005°44'0 0.0
2015-Aug-24 07:32N 58°58' E 005°44'  

Dump ship's entire track history